Aviation Digital Data Service (ADDS)

Output produced by TAFs form (0251 UTC 23 February 2017)
found at http://aviationweather.gov/adds/tafs/
 
KAEG 222330Z 2300/2324 24020G30KT P6SM SCT080 BKN140 
     FM230200 20012KT P6SM BKN100 
     FM231400 23015G25KT P6SM SCT070 
     FM231700 26028G38KT P6SM FEW070 
     FM232100 29025G35KT P6SM SKC